Time;durP1;ratioP1;P1;durP2;ratioP2;P2;SDS_P1;SDS_P2;PMS_P1;PMS_P2;Temp;Humidity;BMP_temperature;BMP_pressure;BME280_temperature;BME280_humidity;BME280_pressure;Samples;Min_cycle;Max_cycle;Signal;HPM_P1;HPM_P2
2022/07/24 00:01:05;;;;;;;10.23;5.15;;;;;;;30.10;33.29;101203.41;143740;602;46012;-83
2022/07/24 00:03:32;;;;;;;9.07;5.55;;;;;;;30.07;33.81;101198.50;143742;586;46004;-83
2022/07/24 00:05:59;;;;;;;16.90;5.82;;;;;;;30.09;33.55;101203.75;143735;567;48008;-83
2022/07/24 00:08:26;;;;;;;8.57;5.40;;;;;;;30.08;34.18;101196.56;143732;574;46008;-84
2022/07/24 00:10:53;;;;;;;17.50;6.32;;;;;;;30.09;33.60;101195.44;143739;589;46014;-85
2022/07/24 00:13:19;;;;;;;14.82;6.28;;;;;;;30.07;32.82;101184.66;143730;577;47010;-84
2022/07/24 00:15:46;;;;;;;10.70;5.87;;;;;;;30.10;33.39;101189.56;143738;633;45020;-84
2022/07/24 00:18:14;;;;;;;14.75;6.45;;;;;;;30.12;33.79;101196.72;143725;568;49006;-85
2022/07/24 00:20:41;;;;;;;13.25;6.12;;;;;;;30.15;33.15;101190.56;143735;633;46010;-82
2022/07/24 00:23:08;;;;;;;10.32;5.32;;;;;;;30.12;34.08;101191.19;143729;603;47006;-84
2022/07/24 00:25:37;;;;;;;11.88;5.00;;;;;;;30.12;33.57;101189.22;143736;640;45011;-84
2022/07/24 00:28:05;;;;;;;13.18;5.25;;;;;;;30.13;33.34;101190.06;143739;662;45010;-84
2022/07/24 00:30:37;;;;;;;7.87;4.97;;;;;;;30.05;33.20;101186.94;143736;664;46012;-84
2022/07/24 00:33:15;;;;;;;7.40;4.95;;;;;;;30.00;33.35;101184.31;143735;600;46018;-84
2022/07/24 00:35:43;;;;;;;9.93;5.43;;;;;;;29.94;33.05;101186.37;143737;568;45010;-85
2022/07/24 00:38:14;;;;;;;11.35;5.53;;;;;;;29.92;33.22;101182.28;143738;626;46021;-84
2022/07/24 00:40:45;;;;;;;10.95;4.70;;;;;;;29.88;33.08;101179.34;143728;614;46032;-83
2022/07/24 00:43:16;;;;;;;9.70;4.65;;;;;;;29.87;32.84;101179.66;143735;654;46006;-83
2022/07/24 00:45:47;;;;;;;14.00;5.37;;;;;;;29.84;33.01;101177.53;143737;591;45010;-85
2022/07/24 00:48:18;;;;;;;14.35;5.32;;;;;;;29.85;32.22;101176.37;143728;588;48001;-84
2022/07/24 00:50:45;;;;;;;10.32;4.95;;;;;;;29.86;33.21;101180.78;143734;587;46010;-84
2022/07/24 00:53:26;;;;;;;10.25;5.18;;;;;;;29.84;33.31;101169.22;143730;598;46016;-85
2022/07/24 00:55:53;;;;;;;10.68;5.45;;;;;;;29.84;33.91;101175.59;143731;590;46006;-83
2022/07/24 00:58:23;;;;;;;9.63;5.03;;;;;;;29.83;33.58;101170.38;143738;572;46016;-85
2022/07/24 01:00:54;;;;;;;7.47;5.60;;;;;;;29.80;34.42;101171.81;143733;591;46921;-82
2022/07/24 01:03:24;;;;;;;14.20;5.80;;;;;;;29.80;33.84;101172.66;143732;594;47002;-84
2022/07/24 01:06:06;;;;;;;10.38;5.62;;;;;;;29.84;33.61;101170.03;143721;614;53006;-85
2022/07/24 01:08:36;;;;;;;8.43;4.93;;;;;;;29.86;33.91;101178.84;143702;572;73314;-84
2022/07/24 01:11:04;;;;;;;12.32;6.15;;;;;;;29.85;34.12;101177.22;143734;588;46010;-84
2022/07/24 01:13:32;;;;;;;12.90;6.10;;;;;;;29.85;35.01;101170.84;143735;579;45930;-84
2022/07/24 01:15:59;;;;;;;9.50;5.20;;;;;;;29.86;34.68;101175.25;143727;624;48000;-84
2022/07/24 01:18:28;;;;;;;12.48;5.78;;;;;;;29.83;35.10;101173.16;143738;608;46013;-84
2022/07/24 01:20:55;;;;;;;12.73;5.50;;;;;;;29.82;34.76;101168.75;143731;582;47010;-85
2022/07/24 01:23:27;;;;;;;12.73;5.18;;;;;;;29.80;34.61;101167.09;143735;584;47002;-84
2022/07/24 01:25:54;;;;;;;9.75;5.20;;;;;;;29.77;34.66;101173.28;143735;619;45923;-83
2022/07/24 01:28:22;;;;;;;14.32;5.70;;;;;;;29.77;34.76;101170.50;143738;567;46002;-84
2022/07/24 01:30:50;;;;;;;12.30;5.72;;;;;;;29.73;34.80;101168.69;143729;577;45925;-83
2022/07/24 01:33:21;;;;;;;13.88;5.97;;;;;;;29.71;34.84;101160.69;143734;586;46009;-83
2022/07/24 01:35:51;;;;;;;13.75;6.07;;;;;;;29.70;34.80;101161.81;143735;599;47006;-85
2022/07/24 01:38:19;;;;;;;13.45;6.07;;;;;;;29.68;34.74;101161.31;143739;643;45010;-83
2022/07/24 01:40:48;;;;;;;18.90;5.55;;;;;;;29.69;34.85;101153.84;143733;578;46030;-83
2022/07/24 01:43:16;;;;;;;9.68;5.85;;;;;;;29.70;34.80;101158.25;143731;583;48021;-83
2022/07/24 01:45:44;;;;;;;12.02;5.30;;;;;;;29.66;34.90;101158.06;143735;576;45925;-83
2022/07/24 01:48:13;;;;;;;15.43;5.25;;;;;;;29.64;34.66;101152.84;143734;576;47005;-83
2022/07/24 01:50:46;;;;;;;12.35;5.70;;;;;;;29.62;34.47;101146.81;143733;567;47010;-83
2022/07/24 01:53:16;;;;;;;12.30;4.90;;;;;;;29.61;34.41;101150.72;143731;581;48006;-84
2022/07/24 01:55:48;;;;;;;11.73;5.85;;;;;;;29.62;34.21;101154.31;143725;612;48008;-83
2022/07/24 01:58:17;;;;;;;13.48;5.57;;;;;;;29.59;34.69;101146.66;143739;594;45010;-84
2022/07/24 02:00:49;;;;;;;18.10;6.00;;;;;;;29.56;34.03;101141.75;143736;600;45923;-84
2022/07/24 02:03:21;;;;;;;13.38;5.47;;;;;;;29.55;34.10;101149.25;143736;573;46004;-82
2022/07/24 02:05:49;;;;;;;14.57;5.55;;;;;;;29.55;35.33;101145.63;143735;599;46025;-85
2022/07/24 02:08:19;;;;;;;9.15;5.53;;;;;;;29.50;34.20;101141.06;143730;572;48008;-83
2022/07/24 02:10:46;;;;;;;9.27;4.55;;;;;;;29.50;34.02;101146.59;143734;567;46923;-84
2022/07/24 02:13:17;;;;;;;12.82;5.43;;;;;;;29.50;33.72;101146.59;143737;606;45012;-85
2022/07/24 02:15:47;;;;;;;16.52;4.70;;;;;;;29.48;33.46;101148.87;143735;622;45925;-84
2022/07/24 02:18:14;;;;;;;10.23;5.43;;;;;;;29.49;33.71;101144.97;143733;591;48002;-83
2022/07/24 02:20:47;;;;;;;12.20;4.75;;;;;;;29.45;33.62;101149.50;143727;591;46914;-83
2022/07/24 02:23:19;;;;;;;6.25;4.62;;;;;;;29.46;33.46;101148.34;143733;627;46006;-85
2022/07/24 02:25:53;;;;;;;10.77;4.85;;;;;;;29.42;33.90;101150.12;143736;573;45010;-83
2022/07/24 02:28:21;;;;;;;8.55;4.20;;;;;;;29.41;33.55;101149.31;143734;662;47004;-84
2022/07/24 02:30:58;;;;;;;9.20;5.43;;;;;;;29.37;33.98;101153.03;143730;666;47012;-82
2022/07/24 02:33:28;;;;;;;9.57;5.12;;;;;;;29.35;34.54;101150.56;143728;622;50006;-84
2022/07/24 02:35:56;;;;;;;18.37;5.50;;;;;;;29.36;34.53;101152.22;143733;567;48008;-85
2022/07/24 02:38:26;;;;;;;9.23;4.95;;;;;;;29.37;34.38;101153.03;143738;577;47002;-84
2022/07/24 02:40:55;;;;;;;9.77;5.47;;;;;;;29.38;34.29;101154.69;143735;596;46010;-84
2022/07/24 02:43:25;;;;;;;10.13;5.37;;;;;;;29.38;34.24;101152.72;143737;585;45012;-84
2022/07/24 02:45:54;;;;;;;12.63;5.20;;;;;;;29.33;33.63;101147.28;143736;599;45010;-84
2022/07/24 02:48:21;;;;;;;16.55;6.10;;;;;;;29.32;33.67;101153.94;143739;589;45010;-84
2022/07/24 02:50:57;;;;;;;14.93;5.15;;;;;;;29.39;33.72;101145.25;143736;589;45923;-84
2022/07/24 02:53:28;;;;;;;12.43;5.18;;;;;;;29.39;33.76;101150.78;143734;599;47004;-85
2022/07/24 02:55:58;;;;;;;10.70;5.50;;;;;;;29.41;34.10;101143.78;143730;670;46009;-85
2022/07/24 02:58:25;;;;;;;10.75;4.82;;;;;;;29.37;34.47;101153.03;143726;679;50002;-84
2022/07/24 03:00:56;;;;;;;12.43;5.45;;;;;;;29.34;34.70;101152.50;143733;581;46012;-85
2022/07/24 03:03:23;;;;;;;11.57;5.03;;;;;;;29.36;33.36;101151.41;143725;626;48007;-84
2022/07/24 03:05:50;;;;;;;8.02;4.47;;;;;;;29.34;34.96;101152.50;143733;604;46012;-84
2022/07/24 03:08:17;;;;;;;13.20;5.35;;;;;;;29.35;35.36;101147.81;143732;608;48002;-84
2022/07/24 03:10:45;;;;;;;11.70;5.07;;;;;;;29.33;34.77;101155.56;143723;589;47012;-84
2022/07/24 03:13:12;;;;;;;10.35;5.43;;;;;;;29.37;35.30;101151.06;143734;583;47004;-85
2022/07/24 03:15:44;;;;;;;11.80;5.37;;;;;;;29.39;34.80;101148.81;143736;600;45925;-86
2022/07/24 03:18:15;;;;;;;9.27;5.25;;;;;;;29.41;35.27;101151.25;143735;580;47004;-85
2022/07/24 03:20:42;;;;;;;11.65;4.85;;;;;;;29.41;35.66;101151.25;143736;578;45923;-85
2022/07/24 03:23:09;;;;;;;12.48;5.78;;;;;;;29.37;36.25;101145.53;143731;575;47006;-85
2022/07/24 03:25:36;;;;;;;14.98;5.95;;;;;;;29.28;35.90;101155.72;143737;654;45010;-83
2022/07/24 03:28:03;;;;;;;11.45;5.40;;;;;;;29.20;35.98;101152.56;143731;566;47006;-84
2022/07/24 03:30:30;;;;;;;11.45;5.32;;;;;;;29.21;35.16;101147.88;143734;567;46923;-86
2022/07/24 03:32:57;;;;;;;15.95;5.40;;;;;;;29.23;35.29;101158.59;143728;588;49004;-85
2022/07/24 03:35:24;;;;;;;10.23;5.28;;;;;;;29.23;35.32;101150.31;143728;606;45925;-84
2022/07/24 03:37:51;;;;;;;8.63;4.85;;;;;;;29.22;35.61;101148.66;143723;572;53002;-86
2022/07/24 03:40:19;;;;;;;10.63;5.35;;;;;;;29.19;35.75;101158.44;143734;611;47012;-85
2022/07/24 03:42:46;;;;;;;9.68;5.70;;;;;;;29.18;35.71;101163.13;143736;651;46004;-85
2022/07/24 03:45:13;;;;;;;7.97;5.50;;;;;;;29.20;35.96;101146.25;143733;559;47008;-84
2022/07/24 03:47:40;;;;;;;17.73;6.35;;;;;;;29.19;35.80;101159.22;143738;608;46004;-85
2022/07/24 03:50:08;;;;;;;7.53;5.40;;;;;;;29.22;36.04;101168.84;143721;573;47020;-84
2022/07/24 03:52:35;;;;;;;10.90;5.80;;;;;;;29.20;36.55;101166.41;143727;583;46010;-84
2022/07/24 03:55:02;;;;;;;12.70;5.95;;;;;;;29.20;36.32;101165.59;143724;629;46009;-85
2022/07/24 03:57:30;;;;;;;16.33;5.47;;;;;;;29.18;36.07;101167.84;143729;592;46004;-86
2022/07/24 03:59:57;;;;;;;10.98;6.37;;;;;;;29.14;36.79;101169.63;143727;603;46012;-84
2022/07/24 04:02:24;;;;;;;10.90;6.10;;;;;;;29.14;35.91;101164.88;143730;568;45012;-84
2022/07/24 04:04:51;;;;;;;10.98;5.65;;;;;;;29.12;36.40;101166.34;143729;613;45925;-86
2022/07/24 04:07:19;;;;;;;9.70;5.18;;;;;;;29.10;36.82;101171.38;178772;57;53235;-84
2022/07/24 04:09:47;;;;;;;9.20;5.37;;;;;;;29.07;36.40;101170.06;143720;573;49006;-85
2022/07/24 04:12:15;;;;;;;13.05;5.47;;;;;;;29.09;36.59;101180.78;143729;589;46004;-84
2022/07/24 04:14:49;;;;;;;10.27;5.23;;;;;;;29.05;36.82;101164.00;136963;57;10001387;-84
2022/07/24 04:17:17;;;;;;;9.23;4.80;;;;;;;29.05;37.85;101178.66;143729;567;45011;-86
2022/07/24 04:19:44;;;;;;;11.35;5.00;;;;;;;29.09;36.36;101172.50;143732;593;45010;-84
2022/07/24 04:22:15;;;;;;;10.43;5.10;;;;;;;29.14;35.96;101175.16;143724;581;47012;-85
2022/07/24 04:24:43;;;;;;;9.48;5.18;;;;;;;29.12;35.96;101172.69;143724;575;48004;-86
2022/07/24 04:27:12;;;;;;;12.02;5.53;;;;;;;29.15;36.42;101171.25;143728;606;46004;-84
2022/07/24 04:29:39;;;;;;;23.17;6.22;;;;;;;29.21;36.34;101178.31;143728;588;47006;-84
2022/07/24 04:32:06;;;;;;;9.63;5.60;;;;;;;29.28;37.10;101167.59;143727;595;45924;-86
2022/07/24 04:34:35;;;;;;;8.95;6.07;;;;;;;29.29;37.38;101174.75;143727;609;47004;-84
2022/07/24 04:37:05;;;;;;;16.05;6.75;;;;;;;29.33;37.10;101178.53;143728;667;45925;-84
2022/07/24 04:39:41;;;;;;;12.07;5.53;;;;;;;29.40;36.45;101172.59;143732;597;45010;-83
2022/07/24 04:42:14;;;;;;;11.38;5.45;;;;;;;29.47;37.52;101180.44;143725;586;47012;-84
2022/07/24 04:44:41;;;;;;;13.50;5.25;;;;;;;29.51;37.41;101184.22;143725;569;47006;-83
2022/07/24 04:47:11;;;;;;;12.15;5.78;;;;;;;29.57;38.05;101182.94;143726;586;46008;-87
2022/07/24 04:49:48;;;;;;;12.85;6.12;;;;;;;29.61;38.46;101189.47;143729;590;47012;-85
2022/07/24 04:52:16;;;;;;;12.23;6.30;;;;;;;29.68;38.39;101182.66;143725;685;46010;-84
2022/07/24 04:54:46;;;;;;;10.32;5.40;;;;;;;29.73;37.65;101183.34;143728;601;46004;-85
2022/07/24 04:57:14;;;;;;;12.32;5.80;;;;;;;29.75;38.41;101175.53;143727;612;46018;-85
2022/07/24 04:59:45;;;;;;;11.18;6.20;;;;;;;29.80;37.80;101178.19;143729;588;47002;-84
2022/07/24 05:02:15;;;;;;;11.52;5.12;;;;;;;29.87;37.71;101182.41;143724;583;47010;-84
2022/07/24 05:04:42;;;;;;;8.23;5.07;;;;;;;29.90;37.33;101177.09;143721;629;47006;-84
2022/07/24 05:07:13;;;;;;;10.05;5.15;;;;;;;29.94;37.19;101178.06;175398;57;48687;-84
2022/07/24 05:09:42;;;;;;;10.07;5.20;;;;;;;30.00;36.64;101173.25;143715;567;51004;-85
2022/07/24 05:12:16;;;;;;;8.77;5.10;;;;;;;30.05;36.25;101173.06;143729;677;46008;-86
2022/07/24 05:14:46;;;;;;;12.70;5.40;;;;;;;30.09;35.71;101168.53;143717;667;52002;-85
2022/07/24 05:17:15;;;;;;;13.45;5.72;;;;;;;30.15;36.16;101168.41;143723;584;46007;-84
2022/07/24 05:19:47;;;;;;;8.40;5.10;;;;;;;30.22;34.93;101177.03;143728;605;47012;-85
2022/07/24 05:22:22;;;;;;;14.90;6.22;;;;;;;30.25;34.78;101174.47;143729;592;45925;-87
2022/07/24 05:24:55;;;;;;;9.55;5.18;;;;;;;30.33;34.63;101174.78;143728;615;46002;-85
2022/07/24 05:27:27;;;;;;;10.10;5.65;;;;;;;30.42;34.42;101174.81;143730;572;45923;-85
2022/07/24 05:29:56;;;;;;;11.33;5.53;;;;;;;30.51;34.62;101183.97;143733;687;45008;-84
2022/07/24 05:32:35;;;;;;;10.43;5.62;;;;;;;30.53;33.23;101178.91;143729;624;46010;-85
2022/07/24 05:35:04;;;;;;;11.48;6.15;;;;;;;30.57;33.83;101182.69;143719;598;50011;-83
2022/07/24 05:37:31;;;;;;;10.73;5.70;;;;;;;30.65;33.99;101183.84;143727;568;47000;-84
2022/07/24 05:39:58;;;;;;;14.00;5.82;;;;;;;30.71;34.52;101188.09;143730;645;46006;-84
2022/07/24 05:42:25;;;;;;;12.40;5.93;;;;;;;30.76;34.30;101195.41;143723;633;48010;-84
2022/07/24 05:44:52;;;;;;;11.80;5.62;;;;;;;30.77;34.11;101184.03;143730;574;45925;-85
2022/07/24 05:47:19;;;;;;;11.35;5.28;;;;;;;30.82;33.87;101192.16;143731;600;45924;-85
2022/07/24 05:49:46;;;;;;;14.55;6.82;;;;;;;30.89;34.07;101199.19;143731;566;46004;-82
2022/07/24 05:52:14;;;;;;;8.57;5.95;;;;;;;30.94;34.09;101191.50;143730;583;45926;-84
2022/07/24 05:54:41;;;;;;;11.32;6.43;;;;;;;31.02;34.11;101191.84;143728;586;46015;-85
2022/07/24 05:57:08;;;;;;;10.45;5.68;;;;;;;31.08;34.30;101196.91;143725;586;47000;-86
2022/07/24 05:59:35;;;;;;;13.32;6.35;;;;;;;31.15;34.30;101201.97;143727;581;47004;-84
2022/07/24 06:02:03;;;;;;;10.90;6.25;;;;;;;31.20;34.18;101192.66;143725;594;47004;-84
2022/07/24 06:04:31;;;;;;;12.45;7.15;;;;;;;31.22;34.71;101195.94;143729;625;46004;-85
2022/07/24 06:06:58;;;;;;;15.85;6.85;;;;;;;31.15;35.87;101197.25;143728;569;45923;-84
2022/07/24 06:09:25;;;;;;;19.08;7.47;;;;;;;31.19;36.52;101183.53;143731;601;46000;-85
2022/07/24 06:11:52;;;;;;;16.35;7.68;;;;;;;31.26;36.35;101194.16;143727;673;46010;-84
2022/07/24 06:14:19;;;;;;;12.82;7.05;;;;;;;31.33;36.99;101196.41;143729;634;46002;-83
2022/07/24 06:16:46;;;;;;;12.85;7.68;;;;;;;31.29;37.78;101196.25;143728;607;46004;-85
2022/07/24 06:19:13;;;;;;;15.07;7.25;;;;;;;31.22;37.90;101187.62;143733;570;45008;-87
2022/07/24 06:21:40;;;;;;;14.32;7.78;;;;;;;31.20;38.05;101182.41;143727;567;46008;-86
2022/07/24 06:24:07;;;;;;;15.27;7.50;;;;;;;31.32;37.56;101184.50;143729;642;47004;-84
2022/07/24 06:26:34;;;;;;;13.27;7.70;;;;;;;31.30;37.55;101178.47;143730;580;45923;-82
2022/07/24 06:29:01;;;;;;;12.48;7.40;;;;;;;31.38;36.86;101185.94;143732;598;45008;-85
2022/07/24 06:31:28;;;;;;;19.02;7.97;;;;;;;31.47;36.96;101194.25;143730;577;45926;-85
2022/07/24 06:33:55;;;;;;;15.77;12.05;;;;;;;31.54;36.17;101185.41;143728;574;47002;-84
2022/07/24 06:36:22;;;;;;;12.15;7.72;;;;;;;31.62;36.27;101179.03;143722;572;47006;-85
2022/07/24 06:38:51;;;;;;;14.98;7.68;;;;;;;31.66;36.62;101180.00;143722;579;53000;-84
2022/07/24 06:41:21;;;;;;;12.65;7.35;;;;;;;31.72;35.98;101181.47;143730;572;45925;-86
2022/07/24 06:43:48;;;;;;;14.07;8.32;;;;;;;31.74;35.98;101178.38;143728;596;46008;-87
2022/07/24 06:46:16;;;;;;;11.18;7.25;;;;;;;31.75;36.38;101177.22;143730;621;45924;-84
2022/07/24 06:48:42;;;;;;;14.87;10.00;;;;;;;31.78;36.18;101175.75;143733;597;45024;-85
2022/07/24 06:51:10;;;;;;;18.62;14.40;;;;;;;31.89;34.38;101171.44;143731;626;45010;-85
2022/07/24 06:53:37;;;;;;;16.10;8.25;;;;;;;31.99;37.14;101167.47;143728;643;46004;-85
2022/07/24 06:56:04;;;;;;;11.90;7.70;;;;;;;31.99;36.53;101171.09;143725;586;48002;-85
2022/07/24 06:58:31;;;;;;;13.93;7.28;;;;;;;32.03;37.95;101172.06;143732;661;46000;-83
2022/07/24 07:00:58;;;;;;;15.23;7.22;;;;;;;32.04;38.63;101170.88;143726;649;46010;-84
2022/07/24 07:03:25;;;;;;;16.08;7.45;;;;;;;32.05;38.88;101172.50;143729;587;46004;-86
2022/07/24 07:05:52;;;;;;;18.98;9.75;;;;;;;32.08;38.56;101171.03;143730;588;46006;-84
2022/07/24 07:08:19;;;;;;;20.37;14.82;;;;;;;32.16;38.24;101163.81;143731;661;47000;-85
2022/07/24 07:10:47;;;;;;;17.40;9.93;;;;;;;32.20;39.64;101162.78;143729;567;46010;-83
2022/07/24 07:13:14;;;;;;;16.23;8.88;;;;;;;32.25;39.90;101158.19;143729;599;47004;-85
2022/07/24 07:15:41;;;;;;;21.42;9.00;;;;;;;32.23;41.01;101161.28;143726;615;46006;-84
2022/07/24 07:18:08;;;;;;;13.20;9.13;;;;;;;32.28;40.13;101166.69;143730;572;46004;-83
2022/07/24 07:20:35;;;;;;;22.60;20.02;;;;;;;32.31;40.25;101162.41;143727;632;47008;-83
2022/07/24 07:23:02;;;;;;;20.30;13.68;;;;;;;32.33;40.87;101154.56;143730;604;46004;-88
2022/07/24 07:25:29;;;;;;;16.80;13.52;;;;;;;32.39;39.83;101160.75;143729;575;46004;-83
2022/07/24 07:27:56;;;;;;;17.33;12.93;;;;;;;32.40;39.48;101159.56;143732;578;46000;-84
2022/07/24 07:30:27;;;;;;;15.13;7.47;;;;;;;32.44;40.88;101160.53;143711;596;56009;-83
2022/07/24 07:32:57;;;;;;;16.40;13.95;;;;;;;32.44;38.50;101152.19;143729;567;46004;-83
2022/07/24 07:35:24;;;;;;;15.60;8.00;;;;;;;32.54;39.51;101150.97;143728;593;47006;-84
2022/07/24 07:37:51;;;;;;;13.30;10.13;;;;;;;32.62;39.24;101150.91;143733;626;46002;-84
2022/07/24 07:40:19;;;;;;;13.90;7.57;;;;;;;32.71;38.76;101148.06;143729;618;46025;-84
2022/07/24 07:42:46;;;;;;;10.90;6.70;;;;;;;32.71;39.58;101152.81;143728;640;46008;-85
2022/07/24 07:45:12;;;;;;;9.98;6.30;;;;;;;32.73;37.82;101148.53;143728;577;46006;-84
2022/07/24 07:47:39;;;;;;;16.85;6.43;;;;;;;32.84;38.29;101142.59;143733;567;46006;-87
2022/07/24 07:50:07;;;;;;;17.70;14.57;;;;;;;32.93;36.30;101143.34;143727;611;46020;-83
2022/07/24 07:52:34;;;;;;;10.75;7.05;;;;;;;33.00;38.85;101149.16;143728;636;47002;-84
2022/07/24 07:55:01;;;;;;;15.23;6.87;;;;;;;33.03;40.66;101151.25;143729;621;45924;-84
2022/07/24 07:57:28;;;;;;;12.80;7.47;;;;;;;33.03;40.25;101144.88;143734;607;45008;-84
2022/07/24 07:59:55;;;;;;;13.82;6.85;;;;;;;33.06;40.30;101147.78;143724;628;47010;-84
2022/07/24 08:02:22;;;;;;;9.00;6.43;;;;;;;33.09;40.30;101138.75;143732;622;45010;-81
2022/07/24 08:04:49;;;;;;;12.95;7.32;;;;;;;33.17;41.71;101145.37;143722;568;49004;-84
2022/07/24 08:07:16;;;;;;;11.90;7.45;;;;;;;33.16;42.10;101142.94;143735;652;45009;-83
2022/07/24 08:09:42;;;;;;;12.55;6.68;;;;;;;33.13;42.67;101140.84;143730;597;45926;-85
2022/07/24 08:12:09;;;;;;;10.93;6.43;;;;;;;33.07;42.53;101140.25;143731;717;46013;-85
2022/07/24 08:14:36;;;;;;;13.02;7.93;;;;;;;33.11;42.01;101133.66;143731;568;45924;-84
2022/07/24 08:17:04;;;;;;;10.60;6.65;;;;;;;33.24;42.02;101137.28;143724;572;50004;-83
2022/07/24 08:19:31;;;;;;;14.52;7.07;;;;;;;33.25;42.19;101135.31;143729;585;47010;-84
2022/07/24 08:21:58;;;;;;;10.32;6.50;;;;;;;33.20;42.00;101132.72;143724;689;49004;-86
2022/07/24 08:24:25;;;;;;;14.43;6.85;;;;;;;33.27;41.70;101127.44;143731;663;46006;-85
2022/07/24 08:26:52;;;;;;;9.82;6.82;;;;;;;33.28;41.63;101131.84;143733;683;46000;-85
2022/07/24 08:29:19;;;;;;;7.65;6.65;;;;;;;33.35;40.46;101129.31;143726;576;47010;-85
2022/07/24 08:31:46;;;;;;;9.73;8.13;;;;;;;33.45;39.79;101135.63;143731;584;46002;-84
2022/07/24 08:34:14;;;;;;;11.63;9.27;;;;;;;33.59;39.57;101121.37;143730;584;45923;-85
2022/07/24 08:36:41;;;;;;;10.93;7.05;;;;;;;33.65;38.48;101120.78;143734;638;45008;-86
2022/07/24 08:39:08;;;;;;;12.45;7.18;;;;;;;33.71;39.25;101113.81;143730;573;46008;-82
2022/07/24 08:41:35;;;;;;;11.32;6.87;;;;;;;33.81;38.53;101106.16;143731;591;45925;-84
2022/07/24 08:44:05;;;;;;;9.23;6.37;;;;;;;33.84;36.56;101116.62;143732;658;45009;-85
2022/07/24 08:46:33;;;;;;;11.68;6.55;;;;;;;33.91;35.22;101121.63;143734;663;45008;-84
2022/07/24 08:49:02;;;;;;;15.48;6.20;;;;;;;33.99;34.88;101121.50;143727;586;47010;-85
2022/07/24 08:51:33;;;;;;;12.50;9.07;;;;;;;34.11;34.51;101114.28;143727;656;47004;-83
2022/07/24 08:54:24;;;;;;;12.13;10.68;;;;;;;34.24;36.55;101112.28;143730;568;46000;-86
2022/07/24 08:56:52;;;;;;;12.45;8.00;;;;;;;34.36;37.71;101114.25;143732;607;46006;-83
2022/07/24 08:59:36;;;;;;;15.38;10.23;;;;;;;34.46;38.40;101108.19;143726;573;47010;-87
2022/07/24 09:02:04;;;;;;;10.88;8.30;;;;;;;34.51;38.83;101116.31;143723;621;49004;-84
2022/07/24 09:04:48;;;;;;;10.85;8.55;;;;;;;34.57;39.76;101111.28;143729;699;46006;-86
2022/07/24 09:07:31;;;;;;;10.25;7.00;;;;;;;34.58;41.57;101118.50;143732;572;46000;-86
2022/07/24 09:10:35;;;;;;;15.88;9.88;;;;;;;34.64;41.12;101111.50;143726;646;47010;-85
2022/07/24 09:20:30;;;;;;;8.88;6.00;;;;;;;34.74;40.33;101110.19;143727;566;47002;-84
2022/07/24 09:22:58;;;;;;;14.00;6.93;;;;;;;34.83;40.18;101110.03;143730;599;46010;-84
2022/07/24 09:25:29;;;;;;;12.30;7.00;;;;;;;34.81;38.63;101112.38;143725;608;47002;-81
2022/07/24 09:28:14;;;;;;;8.70;6.50;;;;;;;34.91;38.01;101111.84;143729;734;46004;-84
2022/07/24 09:31:05;;;;;;;8.75;6.18;;;;;;;34.95;37.51;101115.59;143730;630;47004;-84
2022/07/24 09:33:37;;;;;;;14.25;6.18;;;;;;;35.01;39.03;101105.78;143727;573;46006;-84
2022/07/24 09:36:17;;;;;;;11.80;7.75;;;;;;;35.07;38.97;101109.13;143727;566;47002;-86
2022/07/24 09:38:53;;;;;;;12.05;6.80;;;;;;;35.11;38.08;101103.62;143728;600;46015;-85
2022/07/24 09:41:54;;;;;;;10.90;6.65;;;;;;;35.05;38.77;101109.47;143729;585;47002;-86
2022/07/24 09:44:51;;;;;;;9.57;7.25;;;;;;;35.14;39.63;101094.53;143730;579;45924;-85
2022/07/24 09:47:53;;;;;;;9.80;7.90;;;;;;;35.19;39.17;101089.50;143731;590;46004;-81
2022/07/24 09:50:29;;;;;;;10.77;7.12;;;;;;;35.30;39.12;101087.00;143729;578;46006;-84
2022/07/24 09:52:58;;;;;;;14.10;6.55;;;;;;;35.43;38.14;101095.25;143733;612;46002;-85
2022/07/24 09:55:39;;;;;;;10.27;6.55;;;;;;;35.50;37.86;101095.50;143728;642;47010;-83
2022/07/24 09:58:17;;;;;;;9.05;6.62;;;;;;;35.55;37.40;101094.41;143731;576;46002;-85
2022/07/24 10:01:41;;;;;;;11.30;6.12;;;;;;;35.53;37.08;101097.56;143732;645;45008;-85
2022/07/24 10:04:21;;;;;;;11.52;7.03;;;;;;;35.57;37.17;101098.44;143730;577;47000;-86
2022/07/24 10:06:51;;;;;;;9.05;6.28;;;;;;;35.53;36.37;101100.34;143726;629;46936;-85
2022/07/24 10:09:23;;;;;;;14.05;6.22;;;;;;;35.32;36.90;101098.63;143728;645;46013;-86
2022/07/24 10:11:53;;;;;;;9.43;6.40;;;;;;;35.21;36.99;101089.97;143729;566;46006;-86
2022/07/24 10:14:41;;;;;;;13.07;6.70;;;;;;;35.08;37.31;101107.97;143734;573;45015;-82
2022/07/24 10:17:10;;;;;;;9.80;6.18;;;;;;;34.97;35.96;101093.72;143729;636;46002;-85
2022/07/24 10:19:52;;;;;;;10.63;6.07;;;;;;;35.01;35.22;101097.41;143730;752;46002;-86
2022/07/24 10:22:24;;;;;;;9.83;6.20;;;;;;;35.04;35.02;101090.31;143729;636;46926;-85
2022/07/24 10:25:13;;;;;;;9.45;6.47;;;;;;;35.05;33.04;101084.34;143734;584;45008;-84
2022/07/24 10:27:42;;;;;;;9.73;5.93;;;;;;;35.05;32.79;101103.09;143729;567;46010;-86
2022/07/24 10:30:11;;;;;;;10.15;7.00;;;;;;;35.03;33.39;101081.13;143728;640;47002;-87
2022/07/24 10:32:38;;;;;;;10.32;6.57;;;;;;;35.15;32.51;101082.22;143732;606;45008;-84
2022/07/24 10:35:38;;;;;;;12.20;6.30;;;;;;;35.32;32.99;101083.81;143733;585;46000;-84
2022/07/24 10:38:37;;;;;;;10.88;8.02;;;;;;;35.42;32.62;101093.66;143728;615;46008;-84
2022/07/24 10:41:13;;;;;;;8.00;6.35;;;;;;;35.33;33.17;101085.44;143725;635;51002;-84
2022/07/24 10:44:36;;;;;;;10.77;6.18;;;;;;;35.34;32.70;101084.28;143728;583;46015;-83
2022/07/24 10:47:32;;;;;;;10.05;6.78;;;;;;;35.29;33.07;101082.56;143732;591;46002;-84
2022/07/24 10:50:05;;;;;;;17.30;7.15;;;;;;;35.39;32.71;101084.00;143730;582;45926;-85
2022/07/24 10:52:54;;;;;;;;;;;;;;;;;;;;;
2022/07/24 10:56:02;;;;;;;10.18;6.95;;;;;;;35.48;33.29;101078.28;143729;572;46923;-87
2022/07/24 10:58:38;;;;;;;9.50;5.78;;;;;;;35.43;33.68;101084.09;143730;584;47000;-84
2022/07/24 11:01:42;;;;;;;10.40;6.55;;;;;;;35.40;35.01;101082.03;143729;614;46008;-83
2022/07/24 11:04:26;;;;;;;8.90;6.57;;;;;;;35.43;35.79;101084.09;143730;592;46002;-83
2022/07/24 11:07:14;;;;;;;9.07;6.40;;;;;;;35.51;36.53;101077.56;143724;603;47004;-84
2022/07/24 11:10:07;;;;;;;7.70;6.10;;;;;;;35.49;36.41;101077.09;143733;729;45008;-87
2022/07/24 11:12:47;;;;;;;11.35;6.05;;;;;;;35.59;36.01;101082.13;143730;616;46004;-84
2022/07/24 11:18:14;;;;;;;7.03;5.82;;;;;;;35.57;34.72;101078.09;143727;581;47006;-87
2022/07/24 11:20:41;;;;;;;7.75;6.10;;;;;;;35.43;36.13;101070.13;143729;578;47000;-86
2022/07/24 11:23:33;;;;;;;10.30;5.97;;;;;;;35.48;36.16;101065.09;143727;630;46008;-85
2022/07/24 11:26:52;;;;;;;9.02;5.82;;;;;;;35.56;35.99;101070.87;143729;621;47004;-86
2022/07/24 11:29:26;;;;;;;10.55;5.32;;;;;;;35.56;35.65;101068.09;143723;577;48918;-86
2022/07/24 11:32:14;;;;;;;10.57;6.12;;;;;;;35.58;34.39;101051.78;143732;580;47006;-86
2022/07/24 11:34:48;;;;;;;9.65;5.97;;;;;;;35.69;33.16;101064.00;143730;906;46010;-85
2022/07/24 11:37:15;;;;;;;6.93;5.20;;;;;;;35.66;32.58;101051.59;143723;662;48014;-85
2022/07/24 11:39:45;;;;;;;8.45;5.57;;;;;;;35.67;33.68;101058.78;143731;567;45923;-84
2022/07/24 11:42:15;;;;;;;10.68;5.85;;;;;;;35.71;34.12;101061.66;143732;573;46006;-84
2022/07/24 11:44:46;;;;;;;11.45;5.32;;;;;;;35.73;32.75;101059.31;143730;589;46010;-83
2022/07/24 11:47:22;;;;;;;9.82;5.70;;;;;;;35.85;33.29;101054.78;143729;603;46006;-86
2022/07/24 11:49:59;;;;;;;5.93;4.97;;;;;;;35.77;33.44;101048.22;143730;598;46008;-85